sensor_id;sensor_type;location;lat;lon;timestamp;P1;durP1;ratioP1;P2;durP2;ratioP2
6739;SDS011;3407;49.882;10.920;2023-12-20T00:01:35;3.40;;;3.17;;
6739;SDS011;3407;49.882;10.920;2023-12-20T00:06:31;3.93;;;2.83;;
6739;SDS011;3407;49.882;10.920;2023-12-20T00:11:26;3.80;;;3.50;;
6739;SDS011;3407;49.882;10.920;2023-12-20T00:16:22;5.33;;;4.83;;
6739;SDS011;3407;49.882;10.920;2023-12-20T00:21:17;9.53;;;4.20;;
6739;SDS011;3407;49.882;10.920;2023-12-20T00:26:13;2.73;;;2.53;;
6739;SDS011;3407;49.882;10.920;2023-12-20T00:31:08;3.07;;;2.80;;
6739;SDS011;3407;49.882;10.920;2023-12-20T00:36:04;2.93;;;2.83;;
6739;SDS011;3407;49.882;10.920;2023-12-20T00:41:00;2.13;;;2.03;;
6739;SDS011;3407;49.882;10.920;2023-12-20T00:45:56;3.57;;;3.27;;
6739;SDS011;3407;49.882;10.920;2023-12-20T00:50:52;2.47;;;2.37;;
6739;SDS011;3407;49.882;10.920;2023-12-20T00:55:47;2.90;;;2.73;;
6739;SDS011;3407;49.882;10.920;2023-12-20T01:00:43;3.03;;;2.93;;
6739;SDS011;3407;49.882;10.920;2023-12-20T01:05:39;2.30;;;2.20;;
6739;SDS011;3407;49.882;10.920;2023-12-20T01:10:34;2.57;;;2.27;;
6739;SDS011;3407;49.882;10.920;2023-12-20T01:15:30;2.13;;;2.03;;
6739;SDS011;3407;49.882;10.920;2023-12-20T01:20:25;2.07;;;1.97;;
6739;SDS011;3407;49.882;10.920;2023-12-20T01:25:21;3.03;;;1.97;;
6739;SDS011;3407;49.882;10.920;2023-12-20T01:30:16;1.60;;;1.60;;
6739;SDS011;3407;49.882;10.920;2023-12-20T01:35:12;2.00;;;1.90;;
6739;SDS011;3407;49.882;10.920;2023-12-20T01:40:08;1.90;;;1.80;;
6739;SDS011;3407;49.882;10.920;2023-12-20T01:45:04;1.90;;;1.80;;
6739;SDS011;3407;49.882;10.920;2023-12-20T01:50:00;1.50;;;1.50;;
6739;SDS011;3407;49.882;10.920;2023-12-20T01:54:58;1.60;;;1.50;;
6739;SDS011;3407;49.882;10.920;2023-12-20T01:59:57;1.50;;;1.50;;
6739;SDS011;3407;49.882;10.920;2023-12-20T02:04:53;2.10;;;2.03;;
6739;SDS011;3407;49.882;10.920;2023-12-20T02:09:49;1.50;;;1.50;;
6739;SDS011;3407;49.882;10.920;2023-12-20T02:14:45;1.40;;;1.40;;
6739;SDS011;3407;49.882;10.920;2023-12-20T02:19:40;1.50;;;1.50;;
6739;SDS011;3407;49.882;10.920;2023-12-20T02:24:36;1.63;;;1.63;;
6739;SDS011;3407;49.882;10.920;2023-12-20T02:29:32;1.40;;;1.40;;
6739;SDS011;3407;49.882;10.920;2023-12-20T02:34:30;1.40;;;1.40;;
6739;SDS011;3407;49.882;10.920;2023-12-20T02:39:26;1.93;;;1.83;;
6739;SDS011;3407;49.882;10.920;2023-12-20T02:44:21;1.60;;;1.60;;
6739;SDS011;3407;49.882;10.920;2023-12-20T02:49:17;1.40;;;1.40;;
6739;SDS011;3407;49.882;10.920;2023-12-20T02:54:13;1.57;;;1.57;;
6739;SDS011;3407;49.882;10.920;2023-12-20T02:59:09;1.50;;;1.50;;
6739;SDS011;3407;49.882;10.920;2023-12-20T03:04:04;1.83;;;1.83;;
6739;SDS011;3407;49.882;10.920;2023-12-20T03:09:00;1.50;;;1.50;;
6739;SDS011;3407;49.882;10.920;2023-12-20T03:13:56;1.40;;;1.40;;
6739;SDS011;3407;49.882;10.920;2023-12-20T03:18:52;1.40;;;1.40;;
6739;SDS011;3407;49.882;10.920;2023-12-20T03:23:47;1.47;;;1.47;;
6739;SDS011;3407;49.882;10.920;2023-12-20T03:28:43;1.40;;;1.40;;
6739;SDS011;3407;49.882;10.920;2023-12-20T03:33:38;1.40;;;1.40;;
6739;SDS011;3407;49.882;10.920;2023-12-20T03:38:34;1.50;;;1.50;;
6739;SDS011;3407;49.882;10.920;2023-12-20T03:43:29;1.40;;;1.40;;
6739;SDS011;3407;49.882;10.920;2023-12-20T03:48:25;1.40;;;1.40;;
6739;SDS011;3407;49.882;10.920;2023-12-20T03:53:21;1.50;;;1.50;;
6739;SDS011;3407;49.882;10.920;2023-12-20T03:58:16;1.50;;;1.50;;
6739;SDS011;3407;49.882;10.920;2023-12-20T04:03:12;1.60;;;1.60;;
6739;SDS011;3407;49.882;10.920;2023-12-20T04:08:10;1.50;;;1.50;;
6739;SDS011;3407;49.882;10.920;2023-12-20T04:13:06;1.40;;;1.40;;
6739;SDS011;3407;49.882;10.920;2023-12-20T04:18:01;1.57;;;1.57;;
6739;SDS011;3407;49.882;10.920;2023-12-20T04:22:57;1.50;;;1.50;;
6739;SDS011;3407;49.882;10.920;2023-12-20T04:27:53;1.30;;;1.30;;
6739;SDS011;3407;49.882;10.920;2023-12-20T04:32:48;1.40;;;1.40;;
6739;SDS011;3407;49.882;10.920;2023-12-20T04:37:44;1.30;;;1.30;;
6739;SDS011;3407;49.882;10.920;2023-12-20T04:42:39;1.50;;;1.50;;
6739;SDS011;3407;49.882;10.920;2023-12-20T04:47:35;1.57;;;1.57;;
6739;SDS011;3407;49.882;10.920;2023-12-20T04:52:30;1.50;;;1.50;;
6739;SDS011;3407;49.882;10.920;2023-12-20T04:57:26;1.30;;;1.30;;
6739;SDS011;3407;49.882;10.920;2023-12-20T05:02:22;1.80;;;1.70;;
6739;SDS011;3407;49.882;10.920;2023-12-20T05:07:18;1.50;;;1.50;;
6739;SDS011;3407;49.882;10.920;2023-12-20T05:12:13;1.50;;;1.50;;
6739;SDS011;3407;49.882;10.920;2023-12-20T05:17:09;1.73;;;1.73;;
6739;SDS011;3407;49.882;10.920;2023-12-20T05:22:04;1.40;;;1.40;;
6739;SDS011;3407;49.882;10.920;2023-12-20T05:27:00;1.60;;;1.60;;
6739;SDS011;3407;49.882;10.920;2023-12-20T05:31:57;1.50;;;1.50;;
6739;SDS011;3407;49.882;10.920;2023-12-20T05:36:54;1.40;;;1.40;;
6739;SDS011;3407;49.882;10.920;2023-12-20T05:41:49;1.60;;;1.60;;
6739;SDS011;3407;49.882;10.920;2023-12-20T05:46:45;1.50;;;1.50;;
6739;SDS011;3407;49.882;10.920;2023-12-20T05:51:40;1.40;;;1.40;;
6739;SDS011;3407;49.882;10.920;2023-12-20T05:56:35;1.87;;;1.57;;
6739;SDS011;3407;49.882;10.920;2023-12-20T06:01:31;1.40;;;1.40;;
6739;SDS011;3407;49.882;10.920;2023-12-20T06:06:28;1.57;;;1.50;;
6739;SDS011;3407;49.882;10.920;2023-12-20T06:11:23;1.40;;;1.40;;
6739;SDS011;3407;49.882;10.920;2023-12-20T06:16:19;1.70;;;1.70;;
6739;SDS011;3407;49.882;10.920;2023-12-20T06:21:15;1.40;;;1.40;;
6739;SDS011;3407;49.882;10.920;2023-12-20T06:26:10;1.40;;;1.40;;
6739;SDS011;3407;49.882;10.920;2023-12-20T06:31:06;1.60;;;1.60;;
6739;SDS011;3407;49.882;10.920;2023-12-20T06:36:01;1.90;;;1.80;;
6739;SDS011;3407;49.882;10.920;2023-12-20T06:40:57;1.40;;;1.40;;
6739;SDS011;3407;49.882;10.920;2023-12-20T06:45:53;1.63;;;1.63;;
6739;SDS011;3407;49.882;10.920;2023-12-20T06:50:49;2.97;;;1.63;;
6739;SDS011;3407;49.882;10.920;2023-12-20T06:55:44;1.50;;;1.50;;
6739;SDS011;3407;49.882;10.920;2023-12-20T07:00:40;1.53;;;1.53;;
6739;SDS011;3407;49.882;10.920;2023-12-20T07:05:35;1.53;;;1.50;;
6739;SDS011;3407;49.882;10.920;2023-12-20T07:10:31;1.80;;;1.80;;
6739;SDS011;3407;49.882;10.920;2023-12-20T07:15:26;2.00;;;2.00;;
6739;SDS011;3407;49.882;10.920;2023-12-20T07:20:22;1.67;;;1.57;;
6739;SDS011;3407;49.882;10.920;2023-12-20T07:25:17;1.70;;;1.60;;
6739;SDS011;3407;49.882;10.920;2023-12-20T07:30:13;1.40;;;1.40;;
6739;SDS011;3407;49.882;10.920;2023-12-20T07:35:08;1.87;;;1.87;;
6739;SDS011;3407;49.882;10.920;2023-12-20T07:40:04;2.30;;;2.13;;
6739;SDS011;3407;49.882;10.920;2023-12-20T07:45:00;2.50;;;2.40;;
6739;SDS011;3407;49.882;10.920;2023-12-20T07:49:56;1.77;;;1.77;;
6739;SDS011;3407;49.882;10.920;2023-12-20T07:54:51;1.57;;;1.57;;
6739;SDS011;3407;49.882;10.920;2023-12-20T07:59:47;1.63;;;1.63;;
6739;SDS011;3407;49.882;10.920;2023-12-20T08:04:43;2.10;;;2.10;;
6739;SDS011;3407;49.882;10.920;2023-12-20T08:09:38;1.80;;;1.80;;
6739;SDS011;3407;49.882;10.920;2023-12-20T08:14:34;1.33;;;1.33;;
6739;SDS011;3407;49.882;10.920;2023-12-20T08:19:29;5.40;;;1.80;;
6739;SDS011;3407;49.882;10.920;2023-12-20T08:24:25;1.50;;;1.50;;
6739;SDS011;3407;49.882;10.920;2023-12-20T08:29:20;1.47;;;1.47;;
6739;SDS011;3407;49.882;10.920;2023-12-20T08:34:16;1.53;;;1.53;;
6739;SDS011;3407;49.882;10.920;2023-12-20T08:39:11;2.47;;;2.37;;
6739;SDS011;3407;49.882;10.920;2023-12-20T08:44:07;1.70;;;1.60;;
6739;SDS011;3407;49.882;10.920;2023-12-20T08:49:04;1.70;;;1.70;;
6739;SDS011;3407;49.882;10.920;2023-12-20T08:54:00;1.50;;;1.50;;
6739;SDS011;3407;49.882;10.920;2023-12-20T08:58:55;2.50;;;2.03;;
6739;SDS011;3407;49.882;10.920;2023-12-20T09:03:51;1.80;;;1.80;;
6739;SDS011;3407;49.882;10.920;2023-12-20T09:08:46;8.23;;;1.90;;
6739;SDS011;3407;49.882;10.920;2023-12-20T09:13:42;1.60;;;1.60;;
6739;SDS011;3407;49.882;10.920;2023-12-20T09:18:39;9.23;;;1.73;;
6739;SDS011;3407;49.882;10.920;2023-12-20T09:23:34;1.60;;;1.50;;
6739;SDS011;3407;49.882;10.920;2023-12-20T09:28:31;1.50;;;1.50;;
6739;SDS011;3407;49.882;10.920;2023-12-20T09:33:32;1.67;;;1.60;;
6739;SDS011;3407;49.882;10.920;2023-12-20T09:38:28;1.60;;;1.60;;
6739;SDS011;3407;49.882;10.920;2023-12-20T09:43:23;1.37;;;1.37;;
6739;SDS011;3407;49.882;10.920;2023-12-20T09:48:20;1.47;;;1.47;;
6739;SDS011;3407;49.882;10.920;2023-12-20T09:53:16;1.87;;;1.77;;
6739;SDS011;3407;49.882;10.920;2023-12-20T09:58:14;1.50;;;1.50;;
6739;SDS011;3407;49.882;10.920;2023-12-20T10:03:10;1.40;;;1.40;;
6739;SDS011;3407;49.882;10.920;2023-12-20T10:08:08;1.53;;;1.53;;
6739;SDS011;3407;49.882;10.920;2023-12-20T10:13:04;1.63;;;1.53;;
6739;SDS011;3407;49.882;10.920;2023-12-20T10:18:05;1.50;;;1.50;;
6739;SDS011;3407;49.882;10.920;2023-12-20T10:23:01;2.53;;;1.80;;
6739;SDS011;3407;49.882;10.920;2023-12-20T10:33:14;1.40;;;1.40;;
6739;SDS011;3407;49.882;10.920;2023-12-20T10:38:22;1.73;;;1.67;;
6739;SDS011;3407;49.882;10.920;2023-12-20T10:43:18;1.30;;;1.30;;
6739;SDS011;3407;49.882;10.920;2023-12-20T10:48:14;1.10;;;1.10;;
6739;SDS011;3407;49.882;10.920;2023-12-20T10:53:11;1.23;;;1.23;;
6739;SDS011;3407;49.882;10.920;2023-12-20T10:58:08;2.07;;;1.60;;
6739;SDS011;3407;49.882;10.920;2023-12-20T11:03:03;1.20;;;1.20;;
6739;SDS011;3407;49.882;10.920;2023-12-20T11:08:02;1.30;;;1.30;;
6739;SDS011;3407;49.882;10.920;2023-12-20T11:13:17;1.20;;;1.20;;
6739;SDS011;3407;49.882;10.920;2023-12-20T11:18:28;1.70;;;1.70;;
6739;SDS011;3407;49.882;10.920;2023-12-20T11:23:24;3.10;;;1.50;;
6739;SDS011;3407;49.882;10.920;2023-12-20T11:28:20;2.40;;;1.53;;
6739;SDS011;3407;49.882;10.920;2023-12-20T11:33:17;1.17;;;1.17;;
6739;SDS011;3407;49.882;10.920;2023-12-20T11:38:20;2.00;;;1.80;;
6739;SDS011;3407;49.882;10.920;2023-12-20T11:43:32;1.30;;;1.27;;
6739;SDS011;3407;49.882;10.920;2023-12-20T11:48:31;1.73;;;1.67;;
6739;SDS011;3407;49.882;10.920;2023-12-20T11:53:27;1.97;;;1.87;;
6739;SDS011;3407;49.882;10.920;2023-12-20T11:58:23;3.27;;;1.40;;
6739;SDS011;3407;49.882;10.920;2023-12-20T12:03:18;1.40;;;1.40;;
6739;SDS011;3407;49.882;10.920;2023-12-20T12:08:14;1.30;;;1.30;;
6739;SDS011;3407;49.882;10.920;2023-12-20T12:13:10;2.20;;;1.40;;
6739;SDS011;3407;49.882;10.920;2023-12-20T12:18:06;2.03;;;1.87;;
6739;SDS011;3407;49.882;10.920;2023-12-20T12:23:03;1.23;;;1.23;;
6739;SDS011;3407;49.882;10.920;2023-12-20T12:28:00;1.60;;;1.60;;
6739;SDS011;3407;49.882;10.920;2023-12-20T12:32:56;2.33;;;1.80;;
6739;SDS011;3407;49.882;10.920;2023-12-20T12:37:52;1.30;;;1.30;;
6739;SDS011;3407;49.882;10.920;2023-12-20T12:42:48;2.03;;;1.93;;
6739;SDS011;3407;49.882;10.920;2023-12-20T12:47:44;1.80;;;1.70;;
6739;SDS011;3407;49.882;10.920;2023-12-20T12:52:40;1.30;;;1.30;;
6739;SDS011;3407;49.882;10.920;2023-12-20T12:57:35;1.47;;;1.47;;
6739;SDS011;3407;49.882;10.920;2023-12-20T13:02:31;1.50;;;1.50;;
6739;SDS011;3407;49.882;10.920;2023-12-20T13:07:27;2.23;;;2.17;;
6739;SDS011;3407;49.882;10.920;2023-12-20T13:12:22;1.20;;;1.20;;
6739;SDS011;3407;49.882;10.920;2023-12-20T13:17:18;3.90;;;1.47;;
6739;SDS011;3407;49.882;10.920;2023-12-20T13:22:13;1.50;;;1.43;;
6739;SDS011;3407;49.882;10.920;2023-12-20T13:27:09;1.20;;;1.20;;
6739;SDS011;3407;49.882;10.920;2023-12-20T13:32:05;1.30;;;1.30;;
6739;SDS011;3407;49.882;10.920;2023-12-20T13:37:01;1.57;;;1.57;;
6739;SDS011;3407;49.882;10.920;2023-12-20T13:41:57;1.40;;;1.40;;
6739;SDS011;3407;49.882;10.920;2023-12-20T13:46:53;1.40;;;1.40;;
6739;SDS011;3407;49.882;10.920;2023-12-20T13:51:48;1.30;;;1.30;;
6739;SDS011;3407;49.882;10.920;2023-12-20T13:56:44;4.37;;;1.50;;
6739;SDS011;3407;49.882;10.920;2023-12-20T14:01:39;1.83;;;1.83;;
6739;SDS011;3407;49.882;10.920;2023-12-20T14:06:35;1.20;;;1.20;;
6739;SDS011;3407;49.882;10.920;2023-12-20T14:11:30;1.20;;;1.20;;
6739;SDS011;3407;49.882;10.920;2023-12-20T14:16:26;1.20;;;1.20;;
6739;SDS011;3407;49.882;10.920;2023-12-20T14:21:21;1.30;;;1.30;;
6739;SDS011;3407;49.882;10.920;2023-12-20T14:26:18;1.20;;;1.20;;
6739;SDS011;3407;49.882;10.920;2023-12-20T14:31:14;1.30;;;1.30;;
6739;SDS011;3407;49.882;10.920;2023-12-20T14:36:09;1.37;;;1.37;;
6739;SDS011;3407;49.882;10.920;2023-12-20T14:41:05;1.30;;;1.30;;
6739;SDS011;3407;49.882;10.920;2023-12-20T14:46:03;1.30;;;1.30;;
6739;SDS011;3407;49.882;10.920;2023-12-20T14:51:00;1.70;;;1.60;;
6739;SDS011;3407;49.882;10.920;2023-12-20T14:55:56;1.70;;;1.60;;
6739;SDS011;3407;49.882;10.920;2023-12-20T15:00:51;1.57;;;1.53;;
6739;SDS011;3407;49.882;10.920;2023-12-20T15:05:47;1.97;;;1.87;;
6739;SDS011;3407;49.882;10.920;2023-12-20T15:10:42;1.40;;;1.40;;
6739;SDS011;3407;49.882;10.920;2023-12-20T15:15:38;1.50;;;1.50;;
6739;SDS011;3407;49.882;10.920;2023-12-20T15:20:33;1.43;;;1.43;;
6739;SDS011;3407;49.882;10.920;2023-12-20T15:25:31;2.17;;;2.07;;
6739;SDS011;3407;49.882;10.920;2023-12-20T15:30:27;8.97;;;1.70;;
6739;SDS011;3407;49.882;10.920;2023-12-20T15:35:24;1.60;;;1.50;;
6739;SDS011;3407;49.882;10.920;2023-12-20T15:40:20;1.43;;;1.43;;
6739;SDS011;3407;49.882;10.920;2023-12-20T15:45:15;1.60;;;1.60;;
6739;SDS011;3407;49.882;10.920;2023-12-20T15:50:11;1.43;;;1.43;;
6739;SDS011;3407;49.882;10.920;2023-12-20T15:55:07;1.30;;;1.30;;
6739;SDS011;3407;49.882;10.920;2023-12-20T16:00:03;1.80;;;1.80;;
6739;SDS011;3407;49.882;10.920;2023-12-20T16:04:59;1.47;;;1.47;;
6739;SDS011;3407;49.882;10.920;2023-12-20T16:09:55;1.97;;;1.97;;
6739;SDS011;3407;49.882;10.920;2023-12-20T16:14:51;1.47;;;1.47;;
6739;SDS011;3407;49.882;10.920;2023-12-20T16:19:46;1.77;;;1.77;;
6739;SDS011;3407;49.882;10.920;2023-12-20T16:24:42;1.97;;;1.87;;
6739;SDS011;3407;49.882;10.920;2023-12-20T16:29:37;2.60;;;1.93;;
6739;SDS011;3407;49.882;10.920;2023-12-20T16:34:33;1.60;;;1.50;;
6739;SDS011;3407;49.882;10.920;2023-12-20T16:39:29;1.50;;;1.50;;
6739;SDS011;3407;49.882;10.920;2023-12-20T16:44:25;2.27;;;2.20;;
6739;SDS011;3407;49.882;10.920;2023-12-20T16:49:20;1.40;;;1.40;;
6739;SDS011;3407;49.882;10.920;2023-12-20T16:54:16;1.50;;;1.50;;
6739;SDS011;3407;49.882;10.920;2023-12-20T16:59:11;1.47;;;1.47;;
6739;SDS011;3407;49.882;10.920;2023-12-20T17:04:07;1.57;;;1.57;;
6739;SDS011;3407;49.882;10.920;2023-12-20T17:09:02;1.67;;;1.67;;
6739;SDS011;3407;49.882;10.920;2023-12-20T17:13:58;1.90;;;1.80;;
6739;SDS011;3407;49.882;10.920;2023-12-20T17:18:54;1.90;;;1.80;;
6739;SDS011;3407;49.882;10.920;2023-12-20T17:23:49;1.97;;;1.93;;
6739;SDS011;3407;49.882;10.920;2023-12-20T17:28:44;1.43;;;1.43;;
6739;SDS011;3407;49.882;10.920;2023-12-20T17:33:40;4.73;;;2.13;;
6739;SDS011;3407;49.882;10.920;2023-12-20T17:38:36;1.97;;;1.87;;
6739;SDS011;3407;49.882;10.920;2023-12-20T17:43:34;1.57;;;1.57;;
6739;SDS011;3407;49.882;10.920;2023-12-20T17:48:29;2.50;;;2.30;;
6739;SDS011;3407;49.882;10.920;2023-12-20T17:53:25;1.97;;;1.97;;
6739;SDS011;3407;49.882;10.920;2023-12-20T17:58:20;1.57;;;1.57;;
6739;SDS011;3407;49.882;10.920;2023-12-20T18:03:16;1.50;;;1.50;;
6739;SDS011;3407;49.882;10.920;2023-12-20T18:08:11;1.47;;;1.47;;
6739;SDS011;3407;49.882;10.920;2023-12-20T18:13:07;1.80;;;1.70;;
6739;SDS011;3407;49.882;10.920;2023-12-20T18:18:03;1.80;;;1.80;;
6739;SDS011;3407;49.882;10.920;2023-12-20T18:22:59;1.73;;;1.73;;
6739;SDS011;3407;49.882;10.920;2023-12-20T18:27:54;1.67;;;1.67;;
6739;SDS011;3407;49.882;10.920;2023-12-20T18:32:50;1.70;;;1.70;;
6739;SDS011;3407;49.882;10.920;2023-12-20T18:37:45;2.37;;;2.27;;
6739;SDS011;3407;49.882;10.920;2023-12-20T18:42:41;1.60;;;1.60;;
6739;SDS011;3407;49.882;10.920;2023-12-20T18:47:37;2.00;;;1.90;;
6739;SDS011;3407;49.882;10.920;2023-12-20T18:52:32;4.97;;;1.70;;
6739;SDS011;3407;49.882;10.920;2023-12-20T18:57:28;2.67;;;2.03;;
6739;SDS011;3407;49.882;10.920;2023-12-20T19:02:24;1.43;;;1.43;;
6739;SDS011;3407;49.882;10.920;2023-12-20T19:07:19;2.63;;;2.43;;
6739;SDS011;3407;49.882;10.920;2023-12-20T19:12:15;1.43;;;1.43;;
6739;SDS011;3407;49.882;10.920;2023-12-20T19:17:11;2.33;;;1.87;;
6739;SDS011;3407;49.882;10.920;2023-12-20T19:22:07;1.40;;;1.40;;
6739;SDS011;3407;49.882;10.920;2023-12-20T19:27:03;1.50;;;1.50;;
6739;SDS011;3407;49.882;10.920;2023-12-20T19:31:58;1.73;;;1.73;;
6739;SDS011;3407;49.882;10.920;2023-12-20T19:36:54;1.60;;;1.60;;
6739;SDS011;3407;49.882;10.920;2023-12-20T19:41:49;1.53;;;1.53;;
6739;SDS011;3407;49.882;10.920;2023-12-20T19:46:45;1.40;;;1.40;;
6739;SDS011;3407;49.882;10.920;2023-12-20T19:51:43;1.93;;;1.83;;
6739;SDS011;3407;49.882;10.920;2023-12-20T19:56:38;1.43;;;1.43;;
6739;SDS011;3407;49.882;10.920;2023-12-20T20:01:34;2.07;;;1.97;;
6739;SDS011;3407;49.882;10.920;2023-12-20T20:06:34;2.20;;;2.10;;
6739;SDS011;3407;49.882;10.920;2023-12-20T20:11:30;1.50;;;1.50;;
6739;SDS011;3407;49.882;10.920;2023-12-20T20:16:25;1.40;;;1.40;;
6739;SDS011;3407;49.882;10.920;2023-12-20T20:21:21;1.60;;;1.60;;
6739;SDS011;3407;49.882;10.920;2023-12-20T20:26:16;1.50;;;1.50;;
6739;SDS011;3407;49.882;10.920;2023-12-20T20:31:12;2.23;;;2.13;;
6739;SDS011;3407;49.882;10.920;2023-12-20T20:36:08;1.40;;;1.40;;
6739;SDS011;3407;49.882;10.920;2023-12-20T20:41:04;1.60;;;1.60;;
6739;SDS011;3407;49.882;10.920;2023-12-20T20:46:00;1.60;;;1.60;;
6739;SDS011;3407;49.882;10.920;2023-12-20T20:50:57;2.00;;;2.00;;
6739;SDS011;3407;49.882;10.920;2023-12-20T20:55:53;1.90;;;1.80;;
6739;SDS011;3407;49.882;10.920;2023-12-20T21:00:49;1.40;;;1.40;;
6739;SDS011;3407;49.882;10.920;2023-12-20T21:05:45;1.70;;;1.60;;
6739;SDS011;3407;49.882;10.920;2023-12-20T21:10:41;1.33;;;1.33;;
6739;SDS011;3407;49.882;10.920;2023-12-20T21:15:38;1.30;;;1.30;;
6739;SDS011;3407;49.882;10.920;2023-12-20T21:20:34;1.50;;;1.50;;
6739;SDS011;3407;49.882;10.920;2023-12-20T21:25:29;1.70;;;1.70;;
6739;SDS011;3407;49.882;10.920;2023-12-20T21:30:26;1.40;;;1.40;;
6739;SDS011;3407;49.882;10.920;2023-12-20T21:35:22;2.13;;;2.03;;
6739;SDS011;3407;49.882;10.920;2023-12-20T21:40:17;1.60;;;1.60;;
6739;SDS011;3407;49.882;10.920;2023-12-20T21:45:13;2.00;;;1.90;;
6739;SDS011;3407;49.882;10.920;2023-12-20T21:50:09;1.57;;;1.57;;
6739;SDS011;3407;49.882;10.920;2023-12-20T21:55:06;1.90;;;1.57;;
6739;SDS011;3407;49.882;10.920;2023-12-20T22:00:02;1.50;;;1.50;;
6739;SDS011;3407;49.882;10.920;2023-12-20T22:04:58;1.70;;;1.70;;
6739;SDS011;3407;49.882;10.920;2023-12-20T22:09:54;1.80;;;1.70;;
6739;SDS011;3407;49.882;10.920;2023-12-20T22:14:49;2.00;;;1.90;;
6739;SDS011;3407;49.882;10.920;2023-12-20T22:19:45;1.60;;;1.60;;
6739;SDS011;3407;49.882;10.920;2023-12-20T22:24:41;1.47;;;1.47;;
6739;SDS011;3407;49.882;10.920;2023-12-20T22:29:37;1.60;;;1.60;;
6739;SDS011;3407;49.882;10.920;2023-12-20T22:34:33;1.90;;;1.80;;
6739;SDS011;3407;49.882;10.920;2023-12-20T22:39:28;2.17;;;2.07;;
6739;SDS011;3407;49.882;10.920;2023-12-20T22:44:24;1.50;;;1.50;;
6739;SDS011;3407;49.882;10.920;2023-12-20T22:49:19;2.93;;;2.83;;
6739;SDS011;3407;49.882;10.920;2023-12-20T22:54:15;1.70;;;1.70;;
6739;SDS011;3407;49.882;10.920;2023-12-20T22:59:11;1.63;;;1.63;;
6739;SDS011;3407;49.882;10.920;2023-12-20T23:04:08;1.63;;;1.63;;
6739;SDS011;3407;49.882;10.920;2023-12-20T23:09:03;1.50;;;1.50;;
6739;SDS011;3407;49.882;10.920;2023-12-20T23:13:59;1.57;;;1.57;;
6739;SDS011;3407;49.882;10.920;2023-12-20T23:18:55;1.97;;;1.90;;
6739;SDS011;3407;49.882;10.920;2023-12-20T23:23:50;1.40;;;1.40;;
6739;SDS011;3407;49.882;10.920;2023-12-20T23:28:46;1.50;;;1.50;;
6739;SDS011;3407;49.882;10.920;2023-12-20T23:33:41;1.40;;;1.40;;
6739;SDS011;3407;49.882;10.920;2023-12-20T23:38:40;1.67;;;1.60;;
6739;SDS011;3407;49.882;10.920;2023-12-20T23:43:35;1.50;;;1.50;;
6739;SDS011;3407;49.882;10.920;2023-12-20T23:48:31;2.20;;;2.10;;
6739;SDS011;3407;49.882;10.920;2023-12-20T23:53:28;1.60;;;1.60;;
6739;SDS011;3407;49.882;10.920;2023-12-20T23:58:24;2.33;;;2.23;;
